createdAt,value
2022-12-27T00:05:21.540Z,102204.34
2022-12-27T00:10:43.521Z,102198.19
2022-12-27T00:16:07.942Z,102202.03
2022-12-27T00:21:30.086Z,102200.50
2022-12-27T00:26:51.794Z,102199.03
2022-12-27T00:32:13.628Z,102192.00
2022-12-27T00:37:35.344Z,102190.31
2022-12-27T00:42:57.055Z,102199.69
2022-12-27T00:48:18.905Z,102212.09
2022-12-27T00:53:41.207Z,102210.81
2022-12-27T00:59:04.909Z,102225.72
2022-12-27T01:04:26.700Z,102235.34
2022-12-27T01:09:48.405Z,102236.41
2022-12-27T01:15:10.673Z,102244.94
2022-12-27T01:20:32.414Z,102242.59
2022-12-27T01:26:02.195Z,102247.09
2022-12-27T01:31:28.063Z,102251.34
2022-12-27T01:36:50.762Z,102264.56
2022-12-27T01:42:36.324Z,102271.16
2022-12-27T01:48:13.256Z,102281.41
2022-12-27T01:53:41.929Z,102292.94
2022-12-27T01:59:08.336Z,102294.88
2022-12-27T02:04:32.269Z,102300.59
2022-12-27T02:09:57.339Z,102298.25
2022-12-27T02:15:19.117Z,102301.25
2022-12-27T02:21:39.103Z,102313.19
2022-12-27T02:27:32.973Z,102307.22
2022-12-27T02:33:00.539Z,102307.66
2022-12-27T02:38:36.211Z,102318.75
2022-12-27T02:44:31.281Z,102320.88
2022-12-27T02:50:11.713Z,102321.06
2022-12-27T02:56:34.063Z,102314.69
2022-12-27T03:02:43.948Z,102308.47
2022-12-27T03:08:23.079Z,102321.50
2022-12-27T03:14:03.355Z,102316.38
2022-12-27T03:19:52.784Z,102323.81
2022-12-27T03:25:29.354Z,102325.97
2022-12-27T03:31:15.964Z,102329.81
2022-12-27T03:36:56.195Z,102331.94
2022-12-27T03:42:41.413Z,102326.63
2022-12-27T03:48:06.455Z,102335.09
2022-12-27T03:53:45.229Z,102323.16
2022-12-27T03:59:07.889Z,102332.72
2022-12-27T04:04:29.629Z,102356.59
2022-12-27T04:10:09.563Z,102349.56
2022-12-27T04:15:50.605Z,102344.25
2022-12-27T04:21:30.568Z,102341.66
2022-12-27T04:27:11.149Z,102344.66
2022-12-27T04:32:51.186Z,102353.19
2022-12-27T04:38:12.959Z,102353.38
2022-12-27T04:43:53.497Z,102363.63
2022-12-27T04:49:40.911Z,102359.97
2022-12-27T04:55:12.057Z,102358.28
2022-12-27T05:00:52.592Z,102359.56
2022-12-27T05:06:14.608Z,102368.09
2022-12-27T05:11:54.616Z,102363.59
2022-12-27T05:17:16.309Z,102370.19
2022-12-27T05:22:56.923Z,102369.31
2022-12-27T05:28:18.639Z,102366.78
2022-12-27T05:33:40.360Z,102359.53
2022-12-27T05:39:02.152Z,102368.06
2022-12-27T05:44:23.874Z,102378.25
2022-12-27T05:49:45.593Z,102382.09
2022-12-27T05:55:07.730Z,102382.31
2022-12-27T06:00:29.432Z,102377.63
2022-12-27T06:05:51.353Z,102367.59
2022-12-27T06:11:15.338Z,102374.00
2022-12-27T06:16:37.201Z,102377.00
2022-12-27T06:21:59.014Z,102379.53
2022-12-27T06:27:20.748Z,102388.69
2022-12-27T06:32:42.470Z,102391.47
2022-12-27T06:38:04.231Z,102387.84
2022-12-27T06:43:26.187Z,102392.53
2022-12-27T06:48:47.956Z,102388.06
2022-12-27T06:54:09.870Z,102395.50
2022-12-27T06:59:31.602Z,102419.59
2022-12-27T07:04:53.306Z,102413.41
2022-12-27T07:10:15.111Z,102432.78
2022-12-27T07:15:39.056Z,102423.81
2022-12-27T07:21:09.052Z,102436.63
2022-12-27T07:26:31.124Z,102427.88
2022-12-27T07:31:52.914Z,102431.88
2022-12-27T07:37:14.701Z,102438.28
2022-12-27T07:42:36.426Z,102427.63
2022-12-27T07:47:58.260Z,102441.69
2022-12-27T07:53:19.974Z,102439.97
2022-12-27T07:58:46.983Z,102441.03
2022-12-27T08:04:08.760Z,102447.63
2022-12-27T08:09:34.113Z,102443.78
2022-12-27T08:14:55.932Z,102443.78
2022-12-27T08:20:17.680Z,102439.56
2022-12-27T08:25:44.784Z,102449.38
2022-12-27T08:31:12.631Z,102448.97
2022-12-27T08:36:54.531Z,102449.81
2022-12-27T08:42:16.094Z,102456.22
2022-12-27T08:47:38.202Z,102448.75
2022-12-27T08:53:01.421Z,102446.81
2022-12-27T08:58:23.831Z,102439.59
2022-12-27T09:03:45.583Z,102445.13
2022-12-27T09:09:07.402Z,102448.75
2022-12-27T09:14:29.305Z,102454.28
2022-12-27T09:19:51.116Z,102458.97
2022-12-27T09:25:12.932Z,102452.56
2022-12-27T09:30:34.738Z,102460.88
2022-12-27T09:36:08.156Z,102453.44
2022-12-27T09:47:44.315Z,102446.59
2022-12-27T09:53:17.711Z,102459.56
2022-12-27T09:58:54.657Z,102466.81
2022-12-27T10:04:19.172Z,102467.25
2022-12-27T10:09:46.096Z,102461.72
2022-12-27T10:15:21.145Z,102463.44
2022-12-27T10:20:55.071Z,102461.06
2022-12-27T10:26:19.196Z,102455.72
2022-12-27T10:31:44.344Z,102462.13
2022-12-27T10:37:06.155Z,102459.34
2022-12-27T10:42:33.834Z,102447.22
2022-12-27T10:47:58.606Z,102454.47
2022-12-27T10:53:37.776Z,102464.47
2022-12-27T10:59:20.417Z,102460.84
2022-12-27T11:04:59.942Z,102468.31
2022-12-27T11:10:24.243Z,102465.94
2022-12-27T11:15:58.764Z,102468.94
2022-12-27T11:21:27.571Z,102472.53
2022-12-27T11:26:55.023Z,102468.72
2022-12-27T11:32:16.828Z,102467.66
2022-12-27T11:37:40.105Z,102470.03
2022-12-27T11:43:09.457Z,102445.09
2022-12-27T11:48:41.073Z,102438.91
2022-12-27T11:54:43.096Z,102431.84
2022-12-27T12:00:16.634Z,102429.69
2022-12-27T12:06:10.711Z,102422.88
2022-12-27T12:12:21.537Z,102413.69
2022-12-27T12:18:13.577Z,102398.16
2022-12-27T12:24:03.160Z,102393.88
2022-12-27T12:29:55.302Z,102396.66
2022-12-27T12:35:49.262Z,102384.91
2022-12-27T12:41:44.122Z,102380.44
2022-12-27T12:47:19.375Z,102374.25
2022-12-27T12:53:02.628Z,102362.13
2022-12-27T12:58:50.219Z,102357.66
2022-12-27T13:04:39.969Z,102329.34
2022-12-27T13:10:13.567Z,102324.88
2022-12-27T13:15:53.587Z,102330.59
2022-12-27T13:21:48.264Z,102312.75
2022-12-27T13:27:10.016Z,102318.47
2022-12-27T13:32:47.158Z,102305.50
2022-12-27T13:38:23.970Z,102286.13
2022-12-27T13:44:10.393Z,102280.59
2022-12-27T13:49:49.605Z,102270.56
2022-12-27T13:55:49.922Z,102272.47
2022-12-27T14:01:46.246Z,102269.91
2022-12-27T14:07:26.088Z,102256.28
2022-12-27T14:12:58.597Z,102251.59
2022-12-27T14:18:37.720Z,102244.34
2022-12-27T14:24:08.423Z,102239.69
2022-12-27T14:30:05.456Z,102246.06
2022-12-27T14:36:04.646Z,102233.28
2022-12-27T14:42:05.131Z,102233.50
2022-12-27T14:47:51.475Z,102214.97
2022-12-27T14:53:30.025Z,102212.44
2022-12-27T14:59:21.818Z,102206.28
2022-12-27T15:04:58.495Z,102216.28
2022-12-27T15:10:47.957Z,102203.94
2022-12-27T15:16:28.105Z,102200.34
2022-12-27T15:22:18.499Z,102203.72
2022-12-27T15:27:48.093Z,102206.50
2022-12-27T15:33:18.677Z,102207.13
2022-12-27T15:38:53.992Z,102212.47
2022-12-27T15:44:25.657Z,102208.41
2022-12-27T15:50:00.669Z,102208.66
2022-12-27T15:56:00.059Z,102205.25
2022-12-27T16:01:28.809Z,102200.75
2022-12-27T16:06:52.286Z,102211.19
2022-12-27T16:12:37.720Z,102195.22
2022-12-27T16:17:59.666Z,102189.25
2022-12-27T16:23:31.421Z,102189.47
2022-12-27T16:28:59.819Z,102194.78
2022-12-27T16:34:21.568Z,102186.88
2022-12-27T16:39:58.714Z,102187.94
2022-12-27T16:45:38.992Z,102180.72
2022-12-27T16:51:07.823Z,102176.22
2022-12-27T16:56:32.745Z,102181.75
2022-12-27T17:01:54.650Z,102173.69
2022-12-27T17:07:54.067Z,102167.28
2022-12-27T17:13:21.537Z,102166.00
2022-12-27T17:18:48.388Z,102171.97
2022-12-27T17:24:18.738Z,102163.66
2022-12-27T17:29:47.900Z,102160.22
2022-12-27T17:35:29.205Z,102162.97
2022-12-27T17:41:47.247Z,102153.84
2022-12-27T17:47:28.445Z,102161.47
2022-12-27T17:53:28.973Z,102156.59
2022-12-27T17:58:53.790Z,102137.44
2022-12-27T18:04:31.167Z,102132.53
2022-12-27T18:09:58.364Z,102123.84
2022-12-27T18:15:25.554Z,102122.19
2022-12-27T18:20:54.969Z,102113.84
2022-12-27T18:26:16.761Z,102105.69
2022-12-27T18:31:48.957Z,102098.03
2022-12-27T18:37:16.825Z,102076.78
2022-12-27T18:42:45.061Z,102078.63
2022-12-27T18:48:12.312Z,102078.19
2022-12-27T18:53:37.879Z,102078.38
2022-12-27T18:59:00.800Z,102069.03
2022-12-27T19:04:29.064Z,102063.78
2022-12-27T19:09:58.310Z,102058.09
2022-12-27T19:15:28.357Z,102042.59
2022-12-27T19:20:54.976Z,102032.69
2022-12-27T19:26:16.631Z,102030.47
2022-12-27T19:31:42.063Z,102010.59
2022-12-27T19:37:03.823Z,102009.78
2022-12-27T19:42:31.926Z,102002.72
2022-12-27T19:47:54.872Z,101993.31
2022-12-27T19:53:19.761Z,101985.50
2022-12-27T19:58:41.513Z,101977.00
2022-12-27T20:04:03.350Z,101970.97
2022-12-27T20:09:25.064Z,101978.63
2022-12-27T20:14:47.663Z,101962.00
2022-12-27T20:20:10.631Z,101962.00
2022-12-27T20:25:33.298Z,101943.38
2022-12-27T20:30:55.123Z,101938.31
2022-12-27T20:36:16.865Z,101929.59
2022-12-27T20:41:38.618Z,101911.69
2022-12-27T20:47:00.390Z,101898.97
2022-12-27T20:52:25.764Z,101892.78
2022-12-27T20:57:52.494Z,101884.22
2022-12-27T21:03:14.308Z,101872.84
2022-12-27T21:08:44.556Z,101871.97
2022-12-27T21:14:11.877Z,101859.38
2022-12-27T21:19:33.648Z,101855.84
2022-12-27T21:24:55.407Z,101856.81
2022-12-27T21:30:17.222Z,101860.22
2022-12-27T21:35:38.921Z,101850.41
2022-12-27T21:41:03.613Z,101836.22
2022-12-27T21:46:28.053Z,101835.59
2022-12-27T21:51:50.046Z,101823.81
2022-12-27T21:57:11.754Z,101825.28
2022-12-27T22:02:33.538Z,101819.88
2022-12-27T22:07:55.988Z,101805.94
2022-12-27T22:13:17.672Z,101783.44
2022-12-27T22:18:44.482Z,101770.34
2022-12-27T22:24:07.065Z,101764.00
2022-12-27T22:29:34.866Z,101760.47
2022-12-27T22:34:57.039Z,101756.06
2022-12-27T22:40:18.727Z,101734.78
2022-12-27T22:45:54.060Z,101711.59
2022-12-27T22:51:18.432Z,101680.91
2022-12-27T22:56:42.354Z,101679.91
2022-12-27T23:02:04.240Z,101682.31
2022-12-27T23:08:03.480Z,101669.34
2022-12-27T23:13:07.683Z,101663.66
2022-12-27T23:18:30.115Z,101658.78
2022-12-27T23:23:52.641Z,101658.41
2022-12-27T23:29:15.497Z,101656.34
2022-12-27T23:34:37.243Z,101652.09
2022-12-27T23:39:59.063Z,101642.53
2022-12-27T23:45:20.778Z,101623.59
2022-12-27T23:50:42.856Z,101605.75
2022-12-27T23:56:30.057Z,101599.59
